ICAO code: LHPR | IATA code: QGY | AFTN: LHPRZPZX | english | deutsch
Időjárás: 2018-08-14 13:30 (UTC) | Hőmérséklet: 26.9 °C | QNH: 1011.8 hPa | Szél: 5.2 m/s | Részletek
Live ATC LHPR
Webkameránk élőképe

Győr-Pér Repülőtér időjárás adatok

Metar:
METAR LHPR 141315Z 31013KT 280V340 9999 BKN046 26/17 Q1011 RMK BL


Taf:
TAF LHPR 141115Z 1412/1421 32010KT 9999 BKN045 BKN070
TEMPO 1412/1416 VRB16G30KT 5000 TSRA SCT040CB BKN050 OVC120
TEMPO 1416/1421 8000 -RA -SHRA SCT040TCU BKN050 OVC120


Jelenidő:
Nem volt érdemleges időjárási jelenség az elmúlt órában
Időbélyeg: 2018-08-14 13:30:00 UTC
Hőmérséklet:
26.9 °C
 
Harmatpont:
17.5 °C
 
Rel. páratartalom:
56%
 
QNH:
1011.8 hPa
 
Szélsebesség:
5.2 m/s
Max:
10.4 m/s
Szélirány:
290°
 
Csapadék (1 óra):
0.0 mm
 
Látótávolság:
20000 m
 
RVR:
>1500 m RWY30
 
1. felhőréteg mennyisége:
4 octa
 
1. felhőréteg alapja:
1630 m


Az adatokat szolgáltatja
az Országos Meteorológiai Szolgálat
Győr-Pér Repülőtér | H 9099 Pér, Repülőtér | Tel: +36/96/559-200 | Fax: +36/96/559-202

ICAO code: LHPR | IATA code: QGY | AFTN: LHPRZPZX


weboldal tervezés: IRQ